KLM23F EHAM-ENBR
Flight info
| Callsign | KLM23F |
|---|---|
| Flight time | N/A |
| Altitude | 36000 |
| Route | BERGI M90 LONAM/N0449F390 DCT LARGA DCT PENUN/N0445F380 DCT ALUVA |
| Aircraft | A20N/M-SDE2E3FGHIRWXY/LB1 |
Departure
| Time | 2026-04-27 13:14 |
|---|---|
| Airport | Amsterdam Airport Schiphol (EHAM) |
Arrival
| Time | N/A |
|---|---|
| Airport | Bergen Airport, Flesland (ENBR) |
| Time | Latitude | Longitude | Altitude | Speed | Heading |
|---|---|---|---|---|---|
| 2026-04-27 12:44 | 52.30706 | 4.77216 | -1 ft | 0 kts | 3° |
| 2026-04-27 12:58 | 52.30695 | 4.77216 | -1 ft | 3 kts | 3° |
| 2026-04-27 12:58 | 52.30675 | 4.77213 | -1 ft | 3 kts | 7° |
| 2026-04-27 12:58 | 52.30655 | 4.77207 | -1 ft | 3 kts | 22° |
| 2026-04-27 12:58 | 52.30641 | 4.77194 | -1 ft | 1 kts | 49° |
| 2026-04-27 12:59 | 52.30640 | 4.77193 | -1 ft | 0 kts | 49° |
| 2026-04-27 13:01 | 52.30641 | 4.77200 | -1 ft | 4 kts | 69° |
| 2026-04-27 13:01 | 52.30643 | 4.77290 | -1 ft | 9 kts | 94° |
| 2026-04-27 13:01 | 52.30639 | 4.77388 | -1 ft | 8 kts | 92° |
| 2026-04-27 13:01 | 52.30640 | 4.77497 | -1 ft | 11 kts | 88° |
| 2026-04-27 13:02 | 52.30688 | 4.77588 | -1 ft | 13 kts | 11° |
| 2026-04-27 13:02 | 52.30786 | 4.77600 | -1 ft | 16 kts | 3° |
| 2026-04-27 13:02 | 52.30913 | 4.77613 | -1 ft | 20 kts | 4° |
| 2026-04-27 13:02 | 52.31067 | 4.77627 | -1 ft | 24 kts | 3° |
| 2026-04-27 13:03 | 52.31232 | 4.77642 | -1 ft | 22 kts | 3° |
| 2026-04-27 13:03 | 52.31397 | 4.77656 | -1 ft | 25 kts | 359° |
| 2026-04-27 13:03 | 52.31546 | 4.77503 | -1 ft | 24 kts | 308° |
| 2026-04-27 13:03 | 52.31574 | 4.77236 | -1 ft | 22 kts | 266° |
| 2026-04-27 13:04 | 52.31565 | 4.76963 | -1 ft | 26 kts | 267° |
| 2026-04-27 13:04 | 52.31550 | 4.76671 | -1 ft | 27 kts | 266° |
| 2026-04-27 13:04 | 52.31541 | 4.76348 | -1 ft | 30 kts | 268° |
| 2026-04-27 13:04 | 52.31532 | 4.76029 | -1 ft | 30 kts | 268° |
| 2026-04-27 13:05 | 52.31519 | 4.75666 | -1 ft | 34 kts | 267° |
| 2026-04-27 13:05 | 52.31508 | 4.75290 | -1 ft | 33 kts | 267° |
| 2026-04-27 13:05 | 52.31496 | 4.74965 | -1 ft | 20 kts | 266° |
| 2026-04-27 13:05 | 52.31488 | 4.74718 | -1 ft | 23 kts | 267° |
| 2026-04-27 13:06 | 52.31478 | 4.74448 | -1 ft | 20 kts | 265° |
| 2026-04-27 13:06 | 52.31524 | 4.74301 | -1 ft | 17 kts | 357° |
| 2026-04-27 13:06 | 52.31651 | 4.74309 | -1 ft | 19 kts | 3° |
| 2026-04-27 13:06 | 52.31791 | 4.74321 | -1 ft | 21 kts | 3° |
| 2026-04-27 13:07 | 52.31940 | 4.74335 | -1 ft | 22 kts | 4° |
| 2026-04-27 13:07 | 52.32032 | 4.74230 | -1 ft | 14 kts | 278° |
| 2026-04-27 13:07 | 52.32037 | 4.74076 | -1 ft | 13 kts | 272° |
| 2026-04-27 13:07 | 52.32045 | 4.73858 | -1 ft | 24 kts | 272° |
| 2026-04-27 13:08 | 52.32048 | 4.73739 | -1 ft | 0 kts | 272° |
| 2026-04-27 13:08 | 52.32049 | 4.73723 | -1 ft | 6 kts | 272° |
| 2026-04-27 13:08 | 52.32051 | 4.73647 | -1 ft | 7 kts | 272° |
| 2026-04-27 13:08 | 52.32055 | 4.73528 | -1 ft | 18 kts | 274° |
| 2026-04-27 13:09 | 52.32103 | 4.73336 | -1 ft | 19 kts | 315° |
| 2026-04-27 13:09 | 52.32210 | 4.73185 | -1 ft | 21 kts | 319° |
| 2026-04-27 13:09 | 52.32326 | 4.73024 | -1 ft | 23 kts | 319° |
| 2026-04-27 13:09 | 52.32453 | 4.72850 | -1 ft | 25 kts | 320° |
| 2026-04-27 13:10 | 52.32586 | 4.72664 | -1 ft | 26 kts | 319° |
| 2026-04-27 13:10 | 52.32717 | 4.72453 | -1 ft | 27 kts | 311° |
| 2026-04-27 13:10 | 52.32846 | 4.72217 | -1 ft | 28 kts | 311° |
| 2026-04-27 13:10 | 52.32976 | 4.71978 | -1 ft | 26 kts | 312° |
| 2026-04-27 13:11 | 52.33094 | 4.71753 | -1 ft | 23 kts | 310° |
| 2026-04-27 13:11 | 52.33143 | 4.71538 | -1 ft | 17 kts | 249° |
| 2026-04-27 13:11 | 52.33143 | 4.71399 | -1 ft | 9 kts | 305° |
| 2026-04-27 13:11 | 52.33183 | 4.71329 | -1 ft | 8 kts | 313° |
| 2026-04-27 13:12 | 52.33216 | 4.71268 | -1 ft | 7 kts | 312° |
| 2026-04-27 13:12 | 52.33245 | 4.71217 | -1 ft | 6 kts | 312° |
| 2026-04-27 13:12 | 52.33283 | 4.71146 | -1 ft | 11 kts | 311° |
| 2026-04-27 13:12 | 52.33333 | 4.71054 | -2 ft | 10 kts | 312° |
| 2026-04-27 13:13 | 52.33379 | 4.70971 | -2 ft | 9 kts | 313° |
| 2026-04-27 13:13 | 52.33420 | 4.70940 | -2 ft | 4 kts | 356° |
| 2026-04-27 13:13 | 52.33454 | 4.70945 | -2 ft | 12 kts | 5° |
| 2026-04-27 13:13 | 52.33777 | 4.70976 | -1 ft | 83 kts | 3° |
| 2026-04-27 13:14 | 52.34556 | 4.71049 | -1 ft | 140 kts | 2° |
| 2026-04-27 13:14 | 52.35677 | 4.71142 | 159 ft | 173 kts | 3° |
| 2026-04-27 13:14 | 52.36885 | 4.71241 | 851 ft | 174 kts | 5° |
| 2026-04-27 13:14 | 52.38103 | 4.71356 | 1621 ft | 181 kts | 4° |
| 2026-04-27 13:15 | 52.39438 | 4.71486 | 2060 ft | 205 kts | 4° |
| 2026-04-27 13:15 | 52.40948 | 4.71629 | 2547 ft | 230 kts | 4° |
| 2026-04-27 13:15 | 52.42616 | 4.71533 | 3155 ft | 250 kts | 346° |
| 2026-04-27 13:15 | 52.44161 | 4.70153 | 4019 ft | 259 kts | 318° |
| 2026-04-27 13:16 | 52.45431 | 4.68101 | 5027 ft | 261 kts | 316° |
| 2026-04-27 13:16 | 52.46721 | 4.65986 | 6055 ft | 264 kts | 316° |
| 2026-04-27 13:16 | 52.48027 | 4.63840 | 7041 ft | 267 kts | 316° |
| 2026-04-27 13:16 | 52.49349 | 4.61671 | 7943 ft | 271 kts | 315° |
| 2026-04-27 13:17 | 52.50690 | 4.59474 | 8880 ft | 274 kts | 315° |
| 2026-04-27 13:17 | 52.52130 | 4.57388 | 9765 ft | 280 kts | 324° |
| 2026-04-27 13:17 | 52.53823 | 4.55741 | 10531 ft | 288 kts | 329° |
| 2026-04-27 13:17 | 52.55610 | 4.54068 | 10863 ft | 312 kts | 329° |
| 2026-04-27 13:18 | 52.57554 | 4.52245 | 11314 ft | 328 kts | 329° |
| 2026-04-27 13:18 | 52.59551 | 4.50369 | 12048 ft | 334 kts | 329° |
| 2026-04-27 13:18 | 52.61581 | 4.48461 | 12855 ft | 337 kts | 329° |
| 2026-04-27 13:18 | 52.63624 | 4.46537 | 13666 ft | 340 kts | 329° |
| 2026-04-27 13:19 | 52.65652 | 4.44620 | 14407 ft | 343 kts | 328° |
| 2026-04-27 13:19 | 52.67732 | 4.42653 | 15095 ft | 347 kts | 328° |
| 2026-04-27 13:19 | 52.69835 | 4.40664 | 15780 ft | 350 kts | 328° |
| 2026-04-27 13:19 | 52.71958 | 4.38657 | 16466 ft | 354 kts | 328° |
| 2026-04-27 13:20 | 52.74124 | 4.36685 | 17140 ft | 358 kts | 333° |
| 2026-04-27 13:20 | 52.76485 | 4.35287 | 17805 ft | 365 kts | 343° |
| 2026-04-27 13:20 | 52.78974 | 4.34360 | 18468 ft | 368 kts | 345° |
| 2026-04-27 13:20 | 52.81491 | 4.33430 | 19049 ft | 372 kts | 345° |
| 2026-04-27 13:21 | 52.83989 | 4.32501 | 19624 ft | 375 kts | 344° |
| 2026-04-27 13:21 | 52.86544 | 4.31545 | 20214 ft | 378 kts | 344° |
| 2026-04-27 13:21 | 52.89113 | 4.30582 | 20782 ft | 380 kts | 344° |
| 2026-04-27 13:21 | 52.91705 | 4.29609 | 21354 ft | 383 kts | 344° |
| 2026-04-27 13:22 | 52.94312 | 4.28632 | 21906 ft | 386 kts | 343° |
| 2026-04-27 13:22 | 52.96939 | 4.27648 | 22460 ft | 388 kts | 343° |
| 2026-04-27 13:22 | 52.99583 | 4.26656 | 22995 ft | 391 kts | 343° |
| 2026-04-27 13:22 | 53.02246 | 4.25653 | 23524 ft | 394 kts | 343° |
| 2026-04-27 13:23 | 53.04926 | 4.24640 | 24019 ft | 397 kts | 343° |
| 2026-04-27 13:23 | 53.07628 | 4.23618 | 24451 ft | 399 kts | 343° |
| 2026-04-27 13:23 | 53.10344 | 4.22589 | 24881 ft | 402 kts | 342° |
| 2026-04-27 13:23 | 53.13041 | 4.21564 | 25302 ft | 404 kts | 342° |
| 2026-04-27 13:24 | 53.15791 | 4.20519 | 25719 ft | 407 kts | 342° |
| 2026-04-27 13:24 | 53.18557 | 4.19466 | 26131 ft | 409 kts | 342° |
| 2026-04-27 13:24 | 53.21340 | 4.18409 | 26537 ft | 412 kts | 342° |
| 2026-04-27 13:24 | 53.24142 | 4.17349 | 26939 ft | 414 kts | 342° |
| 2026-04-27 13:25 | 53.26955 | 4.16283 | 27333 ft | 416 kts | 342° |
| 2026-04-27 13:25 | 53.29795 | 4.15203 | 27725 ft | 419 kts | 342° |
| 2026-04-27 13:25 | 53.32641 | 4.14116 | 28103 ft | 421 kts | 342° |
| 2026-04-27 13:25 | 53.35511 | 4.13019 | 28494 ft | 424 kts | 342° |
| 2026-04-27 13:26 | 53.38354 | 4.11928 | 28865 ft | 426 kts | 342° |
| 2026-04-27 13:26 | 53.41256 | 4.10812 | 29242 ft | 429 kts | 342° |
| 2026-04-27 13:26 | 53.44173 | 4.09693 | 29591 ft | 431 kts | 342° |
| 2026-04-27 13:26 | 53.47110 | 4.08568 | 29951 ft | 434 kts | 342° |
| 2026-04-27 13:27 | 53.50061 | 4.07436 | 30294 ft | 436 kts | 342° |
| 2026-04-27 13:27 | 53.53026 | 4.06291 | 30580 ft | 439 kts | 342° |
| 2026-04-27 13:27 | 53.56010 | 4.05132 | 30850 ft | 441 kts | 342° |
| 2026-04-27 13:27 | 53.58968 | 4.03981 | 31117 ft | 443 kts | 342° |
| 2026-04-27 13:28 | 53.61984 | 4.02807 | 31379 ft | 446 kts | 342° |
| 2026-04-27 13:28 | 53.65012 | 4.01633 | 31645 ft | 448 kts | 342° |
| 2026-04-27 13:28 | 53.68051 | 4.00460 | 31983 ft | 448 kts | 342° |
| 2026-04-27 13:28 | 53.71087 | 3.99289 | 32370 ft | 447 kts | 342° |
| 2026-04-27 13:29 | 53.74116 | 3.98115 | 32756 ft | 446 kts | 342° |
| 2026-04-27 13:29 | 53.77137 | 3.96934 | 33156 ft | 445 kts | 342° |
| 2026-04-27 13:29 | 53.80155 | 3.95749 | 33527 ft | 445 kts | 342° |
| 2026-04-27 13:29 | 53.83168 | 3.94870 | 33893 ft | 449 kts | 350° |
| 2026-04-27 13:30 | 53.86305 | 3.94777 | 34275 ft | 453 kts | 359° |
| 2026-04-27 13:30 | 53.89446 | 3.95351 | 34599 ft | 455 kts | 2° |
| 2026-04-27 13:30 | 53.92589 | 3.95990 | 34923 ft | 454 kts | 2° |
| 2026-04-27 13:30 | 53.95717 | 3.96625 | 35242 ft | 453 kts | 2° |
| 2026-04-27 13:31 | 53.98846 | 3.97258 | 35556 ft | 452 kts | 2° |
| 2026-04-27 13:31 | 54.01965 | 3.97885 | 35862 ft | 451 kts | 2° |
| 2026-04-27 13:31 | 54.05079 | 3.98515 | 36157 ft | 450 kts | 3° |
| 2026-04-27 13:31 | 54.08148 | 3.99136 | 36448 ft | 449 kts | 3° |
| 2026-04-27 13:32 | 54.11246 | 3.99763 | 36731 ft | 449 kts | 3° |
| 2026-04-27 13:32 | 54.14342 | 4.00390 | 37006 ft | 448 kts | 3° |
| 2026-04-27 13:32 | 54.17435 | 4.01019 | 37257 ft | 448 kts | 3° |
| 2026-04-27 13:32 | 54.20528 | 4.01650 | 37343 ft | 447 kts | 3° |
| 2026-04-27 13:33 | 54.26682 | 4.02914 | 37345 ft | 445 kts | 3° |
| 2026-04-27 13:33 | 54.32829 | 4.04180 | 37348 ft | 445 kts | 3° |
| 2026-04-27 13:34 | 54.38938 | 4.05444 | 37352 ft | 445 kts | 3° |
| 2026-04-27 13:34 | 54.45087 | 4.06707 | 37355 ft | 445 kts | 3° |
| 2026-04-27 13:35 | 54.51238 | 4.07976 | 37360 ft | 446 kts | 4° |
| 2026-04-27 13:35 | 54.57405 | 4.09251 | 37366 ft | 446 kts | 4° |
| 2026-04-27 13:36 | 54.63525 | 4.10533 | 37369 ft | 446 kts | 4° |
| 2026-04-27 13:36 | 54.69694 | 4.11821 | 37373 ft | 447 kts | 4° |
| 2026-04-27 13:37 | 54.75929 | 4.13124 | 37356 ft | 456 kts | 4° |
| 2026-04-27 13:37 | 54.79089 | 4.13782 | 37350 ft | 458 kts | 4° |